Home > Products > Valid Products > TAF

000
FTUS44 KMOB 010500
TAFPNS
TAF
KPNS 010520Z 0106/0206 00000KT P6SM SCT250
     FM011700 25007KT P6SM VCTS SCT050CB BKN120=



000
FTUS44 KMOB 010500
TAFMOB
TAF
KMOB 010520Z 0106/0206 00000KT P6SM SCT250
     FM011900 32005KT P6SM VCTS SCT050CB BKN120=



000
FTUS44 KMOB 010500
TAFMOB
TAF
KMOB 010520Z 0106/0206 00000KT P6SM SCT250
     FM011900 32005KT P6SM VCTS SCT050CB BKN120=



000
FTUS44 KMOB 010500
TAFPNS
TAF
KPNS 010520Z 0106/0206 00000KT P6SM SCT250
     FM011700 25007KT P6SM VCTS SCT050CB BKN120=



000
FTUS44 KMOB 312300 RRA
TAFPNS
TAF
KPNS 312353Z 0100/0124 20009KT P6SM BKN250
     FM010300 VRB02KT P6SM SCT250
     FM011700 25007KT P6SM VCTS SCT050CB BKN120=



000
FTUS44 KMOB 312300 RRA
TAFMOB
TAF
KMOB 312353Z 0100/0124 04008KT P6SM FEW150 OVC250
     FM010300 VRB02KT P6SM BKN250
     FM011900 32005KT P6SM VCTS SCT050CB BKN120=



000
FTUS44 KMOB 312300 RRA
TAFMOB
TAF
KMOB 312353Z 0100/0124 04008KT P6SM FEW150 OVC250
     FM010300 VRB02KT P6SM BKN250
     FM011900 32005KT P6SM VCTS SCT050CB BKN120=



000
FTUS44 KMOB 312300 RRA
TAFPNS
TAF
KPNS 312353Z 0100/0124 20009KT P6SM BKN250
     FM010300 VRB02KT P6SM SCT250
     FM011700 25007KT P6SM VCTS SCT050CB BKN120=



000
FTUS44 KMOB 311700
TAFPNS
TAF
KPNS 311731Z 3118/0118 02004KT P6SM SKC
     FM010300 VRB02KT P6SM SCT120=



000
FTUS44 KMOB 311700
TAFPNS
TAF
KPNS 311731Z 3118/0118 02004KT P6SM SKC
     FM010300 VRB02KT P6SM SCT120=



000
FTUS44 KMOB 311700
TAFMOB
TAF
KMOB 311731Z 3118/0118 34007KT P6SM FEW120
     FM010300 VRB02KT P6SM SCT120=



000
FTUS44 KMOB 311700
TAFMOB
TAF
KMOB 311731Z 3118/0118 34007KT P6SM FEW120
     FM010300 VRB02KT P6SM SCT120=



000
FTUS44 KMOB 311100
TAFPNS
TAF
KPNS 311120Z 3112/0112 02003KT P6SM SKC
     FM311600 09004KT P6SM SCT120 BKN250
     FM010300 VRB02KT P6SM BKN250=



000
FTUS44 KMOB 311100
TAFMOB
TAF
KMOB 311120Z 3112/0112 35003KT P6SM FEW060 SCT250
     FM311600 03004KT P6SM BKN120
     FM010300 VRB02KT P6SM BKN250=



000
FTUS44 KMOB 311100
TAFPNS
TAF
KPNS 311120Z 3112/0112 02003KT P6SM SKC
     FM311600 09004KT P6SM SCT120 BKN250
     FM010300 VRB02KT P6SM BKN250=



000
FTUS44 KMOB 311100
TAFMOB
TAF
KMOB 311120Z 3112/0112 35003KT P6SM FEW060 SCT250
     FM311600 03004KT P6SM BKN120
     FM010300 VRB02KT P6SM BKN250=



000
FTUS44 KMOB 310500
TAFMOB
TAF
KMOB 310520Z 3106/0106 VRB03KT P6SM SKC
     FM311600 03004KT P6SM BKN120=



000
FTUS44 KMOB 310500
TAFPNS
TAF
KPNS 310520Z 3106/0106 VRB03KT P6SM SKC
     FM311600 09004KT P6SM SCT120 BKN250=



000
FTUS44 KMOB 310500
TAFMOB
TAF
KMOB 310520Z 3106/0106 VRB03KT P6SM SKC
     FM311600 03004KT P6SM BKN120=



000
FTUS44 KMOB 310500
TAFPNS
TAF
KPNS 310520Z 3106/0106 VRB03KT P6SM SKC
     FM311600 09004KT P6SM SCT120 BKN250=



000
FTUS44 KMOB 302300
TAFMOB
TAF
KMOB 302332Z 3100/3124 02006KT P6SM SKC
     FM311600 03004KT P6SM BKN120=



000
FTUS44 KMOB 302300
TAFMOB
TAF
KMOB 302332Z 3100/3124 02006KT P6SM SKC
     FM311600 03004KT P6SM BKN120=



000
FTUS44 KMOB 302300
TAFPNS
TAF
KPNS 302332Z 3100/3124 36004KT P6SM SKC
     FM311600 09004KT P6SM SCT120 BKN250=



000
FTUS44 KMOB 302300
TAFPNS
TAF
KPNS 302332Z 3100/3124 36004KT P6SM SKC
     FM311600 09004KT P6SM SCT120 BKN250=



000
FTUS44 KMOB 301700
TAFMOB
TAF
KMOB 301728Z 3018/3118 36005KT P6SM FEW050
     FM311600 03004KT P6SM BKN120=



000
FTUS44 KMOB 301700
TAFPNS
TAF
KPNS 301728Z 3018/3118 29005KT P6SM FEW050
     FM311600 09004KT P6SM SCT120 BKN250=



000
FTUS44 KMOB 301700
TAFMOB
TAF
KMOB 301728Z 3018/3118 36005KT P6SM FEW050
     FM311600 03004KT P6SM BKN120=



000
FTUS44 KMOB 301700
TAFPNS
TAF
KPNS 301728Z 3018/3118 29005KT P6SM FEW050
     FM311600 09004KT P6SM SCT120 BKN250=



000
FTUS44 KMOB 301100
TAFMOB
TAF
KMOB 301131Z 3012/3112 01005KT P6SM SKC
     FM301800 36008KT P6SM SKC=



000
FTUS44 KMOB 301100
TAFMOB
TAF
KMOB 301131Z 3012/3112 01005KT P6SM SKC
     FM301800 36008KT P6SM SKC=



000
FTUS44 KMOB 301100
TAFPNS
TAF
KPNS 301131Z 3012/3112 01005KT P6SM SKC
     FM301800 36008KT P6SM SKC=



000
FTUS44 KMOB 301100
TAFPNS
TAF
KPNS 301131Z 3012/3112 01005KT P6SM SKC
     FM301800 36008KT P6SM SKC=



000
FTUS44 KMOB 300500
TAFMOB
TAF
KMOB 300520Z 3006/3106 36004KT P6SM FEW060 SCT070
     FM301300 34008KT P6SM SCT020=



000
FTUS44 KMOB 300500
TAFPNS
TAF
KPNS 300520Z 3006/3106 35004KT P6SM SCT060
     FM301300 34008KT P6SM SCT020=



000
FTUS44 KMOB 300500
TAFPNS
TAF
KPNS 300520Z 3006/3106 35004KT P6SM SCT060
     FM301300 34008KT P6SM SCT020=



000
FTUS44 KMOB 300500
TAFMOB
TAF
KMOB 300520Z 3006/3106 36004KT P6SM FEW060 SCT070
     FM301300 34008KT P6SM SCT020=



000
FTUS44 KMOB 292300
TAFPNS
TAF
KPNS 292328Z 3000/3024 35010KT P6SM SCT060
     FM300300 32004KT P6SM FEW300=



000
FTUS44 KMOB 292300
TAFMOB
TAF
KMOB 292328Z 3000/3024 36008KT P6SM SCT050 BKN250
     FM300300 32004KT P6SM FEW300=



000
FTUS44 KMOB 292300
TAFPNS
TAF
KPNS 292328Z 3000/3024 35010KT P6SM SCT060
     FM300300 32004KT P6SM FEW300=



000
FTUS44 KMOB 292300
TAFMOB
TAF
KMOB 292328Z 3000/3024 36008KT P6SM SCT050 BKN250
     FM300300 32004KT P6SM FEW300=



000
FTUS44 KMOB 291700
TAFMOB
TAF
KMOB 291723Z 2918/3018 35007KT P6SM SCT045
     FM300000 36003KT P6SM SKC=



000
FTUS44 KMOB 291700
TAFPNS
TAF
KPNS 291723Z 2918/3018 36007KT P6SM FEW040
     FM300000 35005KT P6SM SKC=



000
FTUS44 KMOB 291700
TAFPNS
TAF
KPNS 291723Z 2918/3018 36007KT P6SM FEW040
     FM300000 35005KT P6SM SKC=



000
FTUS44 KMOB 291700
TAFMOB
TAF
KMOB 291723Z 2918/3018 35007KT P6SM SCT045
     FM300000 36003KT P6SM SKC=



000
FTUS44 KMOB 291100
TAFMOB
TAF
KMOB 291122Z 2912/3012 34004KT P6SM SKC
     FM300300 VRB03KT P6SM SKC=



000
FTUS44 KMOB 291100
TAFMOB
TAF
KMOB 291122Z 2912/3012 34004KT P6SM SKC
     FM300300 VRB03KT P6SM SKC=



000
FTUS44 KMOB 291100
TAFPNS
TAF
KPNS 291122Z 2912/3012 36005KT P6SM SCT060
     FM300300 32005KT P6SM SKC=



000
FTUS44 KMOB 291100
TAFPNS
TAF
KPNS 291122Z 2912/3012 36005KT P6SM SCT060
     FM300300 32005KT P6SM SKC=



    US Dept of Commerce
    National Oceanic and Atmospheric Administration
    National Weather Service
    1325 East West Highway
    Silver Spring, MD 20910
    Page Author: NWS Internet Services Team
Disclaimer
Information Quality
Credits
Glossary
Privacy Policy
Freedom of Information Act (FOIA)
About Us
Career Opportunities